Time;durP1;ratioP1;P1;durP2;ratioP2;P2;SDS_P1;SDS_P2;PMS_P1;PMS_P2;Temp;Humidity;BMP_temperature;BMP_pressure;BME280_temperature;BME280_humidity;BME280_pressure;Samples;Min_cycle;Max_cycle;Signal;HPM_P1;HPM_P2
2023/08/11 00:02:23;;;;;;;4.40;3.67;;;;;;;15.42;94.99;100075.38;5015233;28;20018;-85
2023/08/11 00:04:52;;;;;;;4.15;3.65;;;;;;;15.41;95.44;100070.19;5032617;28;20076;-85
2023/08/11 00:07:17;;;;;;;4.22;3.63;;;;;;;15.52;96.06;100087.94;5015275;28;20032;-85
2023/08/11 00:09:42;;;;;;;5.88;3.50;;;;;;;15.43;95.71;100087.56;5032487;28;20033;-85
2023/08/11 00:12:08;;;;;;;4.65;3.47;;;;;;;15.35;95.96;100087.16;5015302;28;20018;-85
2023/08/11 00:14:33;;;;;;;4.95;3.35;;;;;;;15.35;95.67;100099.44;5014971;28;20124;-85
2023/08/11 00:16:58;;;;;;;3.95;3.22;;;;;;;15.20;95.55;100080.19;5032785;28;20033;-85
2023/08/11 00:19:25;;;;;;;3.63;3.28;;;;;;;15.21;95.97;100097.63;5014762;28;20029;-85
2023/08/11 00:21:50;;;;;;;4.57;3.00;;;;;;;15.16;96.19;100095.25;5032481;28;20029;-85
2023/08/11 00:24:16;;;;;;;6.30;3.85;;;;;;;15.09;96.71;100090.47;5032719;28;20056;-85
2023/08/11 00:26:41;;;;;;;5.97;3.42;;;;;;;15.07;96.22;100093.19;5032380;28;20047;-85
2023/08/11 00:29:07;;;;;;;6.47;3.80;;;;;;;15.05;96.69;100100.31;5014791;28;20025;-85
2023/08/11 00:31:32;;;;;;;5.50;3.42;;;;;;;14.98;96.88;100089.31;5032223;28;20463;-85
2023/08/11 00:33:57;;;;;;;5.05;4.15;;;;;;;14.82;97.41;100080.63;5032297;28;20025;-85
2023/08/11 00:36:23;;;;;;;4.40;3.72;;;;;;;14.89;97.84;100089.84;5032499;28;20086;-85
2023/08/11 00:38:49;;;;;;;4.03;3.33;;;;;;;14.87;98.39;100096.09;5014478;28;20032;-85
2023/08/11 00:41:16;;;;;;;4.63;3.90;;;;;;;14.88;98.37;100105.69;5032668;28;20022;-85
2023/08/11 00:43:42;;;;;;;5.35;4.03;;;;;;;14.70;98.34;100081.31;5032055;28;20380;-85
2023/08/11 00:46:12;;;;;;;5.25;3.58;;;;;;;14.71;98.14;100083.88;5032217;28;20036;-85
2023/08/11 00:48:38;;;;;;;4.05;3.45;;;;;;;14.76;98.41;100093.25;5013770;28;20068;-85
2023/08/11 00:51:05;;;;;;;5.75;3.67;;;;;;;14.63;98.92;100080.84;5014653;28;20022;-85
2023/08/11 00:53:32;;;;;;;4.80;3.28;;;;;;;14.74;98.86;100109.06;5031859;28;20380;-85
2023/08/11 00:55:58;;;;;;;4.65;3.42;;;;;;;14.76;99.02;100090.63;5014381;28;20022;-85
2023/08/11 00:58:24;;;;;;;5.45;3.55;;;;;;;14.78;98.49;100089.59;5031913;28;20029;-84
2023/08/11 01:00:51;;;;;;;5.10;3.28;;;;;;;14.57;98.30;100078.56;5031762;28;20373;-85
2023/08/11 01:03:17;;;;;;;5.95;3.70;;;;;;;14.59;98.60;100099.47;5031893;28;20091;-84
2023/08/11 01:05:51;;;;;;;4.22;3.13;;;;;;;14.42;98.63;100089.88;5031918;28;20021;-85
2023/08/11 01:08:38;;;;;;;7.22;3.78;;;;;;;14.45;99.33;100087.06;5032061;28;20033;-85
2023/08/11 01:11:17;;;;;;;4.53;3.70;;;;;;;14.58;99.35;100106.47;5014248;28;20033;-85
2023/08/11 01:13:52;;;;;;;5.47;3.30;;;;;;;14.37;99.15;100076.19;5031537;28;20475;-85
2023/08/11 01:16:19;;;;;;;4.68;3.80;;;;;;;14.59;99.29;100108.16;5032063;28;20151;-85
2023/08/11 01:18:44;;;;;;;7.05;4.22;;;;;;;14.51;99.64;100093.78;5031689;28;20053;-85
2023/08/11 01:21:13;;;;;;;4.10;3.65;;;;;;;14.39;99.68;100085.63;5033215;28;20175;-84
2023/08/11 01:23:40;;;;;;;5.30;3.45;;;;;;;14.44;99.77;100088.00;5017973;28;20039;-85
2023/08/11 01:26:06;;;;;;;4.75;3.33;;;;;;;14.40;100.00;100091.72;5018114;28;20120;-85
2023/08/11 01:28:33;;;;;;;3.90;3.53;;;;;;;14.33;100.00;100091.22;5035875;28;20456;-85
2023/08/11 01:30:59;;;;;;;6.38;3.63;;;;;;;14.25;100.00;100082.09;5018296;28;20056;-85
2023/08/11 01:33:24;;;;;;;6.22;3.45;;;;;;;14.25;100.00;100076.88;5018272;28;20022;-84
2023/08/11 01:35:49;;;;;;;4.43;3.78;;;;;;;14.10;100.00;100058.41;5035596;28;20414;-85
2023/08/11 01:38:15;;;;;;;4.18;3.75;;;;;;;14.15;100.00;100069.47;5035669;28;20376;-85
2023/08/11 01:40:40;;;;;;;5.38;4.00;;;;;;;14.04;100.00;100050.91;5035244;28;20499;-85
2023/08/11 01:43:08;;;;;;;6.38;3.45;;;;;;;14.23;100.00;100088.25;5018046;28;20025;-85
2023/08/11 01:45:34;;;;;;;4.38;3.70;;;;;;;14.23;100.00;100096.13;5017674;28;20033;-84
2023/08/11 01:48:01;;;;;;;4.80;3.80;;;;;;;14.16;100.00;100076.44;5035599;28;20033;-85
2023/08/11 01:50:27;;;;;;;5.70;3.72;;;;;;;14.13;100.00;100081.84;5035256;28;20550;-85
2023/08/11 01:52:54;;;;;;;5.95;3.80;;;;;;;14.11;100.00;100085.47;5017374;28;20496;-85
2023/08/11 01:55:20;;;;;;;5.55;3.88;;;;;;;14.00;100.00;100086.06;5035265;28;20460;-85
2023/08/11 01:57:46;;;;;;;5.07;3.72;;;;;;;14.12;100.00;100092.41;5035320;28;20025;-84
2023/08/11 02:00:16;;;;;;;5.10;3.92;;;;;;;13.91;100.00;100062.97;5035187;28;20468;-85
2023/08/11 02:02:42;;;;;;;4.72;3.95;;;;;;;14.06;100.00;100087.47;5034902;28;20038;-85
2023/08/11 02:05:08;;;;;;;3.88;3.30;;;;;;;14.05;100.00;100080.56;5035244;28;20029;-85
2023/08/11 02:07:35;;;;;;;4.93;3.90;;;;;;;14.12;100.00;100097.66;5034928;28;20026;-85
2023/08/11 02:10:02;;;;;;;5.22;4.50;;;;;;;13.95;100.00;100074.97;5035029;28;20044;-85
2023/08/11 02:12:27;;;;;;;5.05;4.05;;;;;;;14.08;100.00;100096.97;5017472;28;20035;-85
2023/08/11 02:14:53;;;;;;;5.85;4.22;;;;;;;13.94;100.00;100081.97;5034886;28;20033;-85
2023/08/11 02:17:19;;;;;;;8.23;3.63;;;;;;;14.06;100.00;100092.72;5035073;28;20532;-85
2023/08/11 02:19:45;;;;;;;5.45;3.92;;;;;;;14.01;100.00;100098.22;5034795;28;20519;-85
2023/08/11 02:22:11;;;;;;;6.78;3.80;;;;;;;13.95;100.00;100091.53;5034838;28;20116;-84
2023/08/11 02:24:36;;;;;;;6.47;3.83;;;;;;;13.98;100.00;100093.13;5016773;28;20116;-85
2023/08/11 02:27:01;;;;;;;5.95;4.30;;;;;;;13.92;100.00;100098.72;5034823;28;20820;-85
2023/08/11 02:29:27;;;;;;;7.97;4.28;;;;;;;13.89;100.00;100096.25;5034822;28;20033;-85
2023/08/11 02:31:52;;;;;;;5.88;3.88;;;;;;;13.89;100.00;100096.25;4992366;28;20034;-85
2023/08/11 02:34:17;;;;;;;5.93;3.80;;;;;;;13.86;100.00;100094.66;4976521;28;20101;-85
2023/08/11 02:36:43;;;;;;;3.83;3.42;;;;;;;13.88;100.00;100099.78;4992532;28;20074;-85
2023/08/11 02:39:09;;;;;;;10.25;4.90;;;;;;;13.86;100.00;100110.38;4992705;28;20041;-85
2023/08/11 02:41:35;;;;;;;6.43;4.28;;;;;;;13.83;100.00;100104.44;4976440;28;20581;-84
2023/08/11 02:44:00;;;;;;;4.82;3.90;;;;;;;13.67;100.00;100086.06;4992752;28;20041;-85
2023/08/11 02:46:26;;;;;;;6.25;4.20;;;;;;;13.70;100.00;100094.59;4992753;28;20645;-85
2023/08/11 02:48:51;;;;;;;5.40;4.45;;;;;;;13.66;100.00;100095.69;4992303;28;20441;-85
2023/08/11 02:51:17;;;;;;;3.90;3.50;;;;;;;13.62;100.00;100101.16;4992628;28;20055;-85
2023/08/11 02:53:42;;;;;;;5.47;4.18;;;;;;;13.57;100.00;100092.69;4975932;28;20478;-85
2023/08/11 02:56:09;;;;;;;4.85;3.80;;;;;;;13.58;100.00;100110.09;4976262;28;20471;-84
2023/08/11 02:58:35;;;;;;;4.70;4.22;;;;;;;13.42;100.00;100084.72;4992310;28;20035;-85
2023/08/11 03:01:01;;;;;;;5.35;3.95;;;;;;;13.47;100.00;100105.41;4975815;28;20512;-85
2023/08/11 03:03:26;;;;;;;6.35;4.15;;;;;;;13.45;100.00;100107.28;5005814;28;20087;-84
2023/08/11 03:05:52;;;;;;;4.55;3.80;;;;;;;13.28;100.00;100081.97;5016023;28;20057;-84
2023/08/11 03:08:17;;;;;;;4.45;4.03;;;;;;;13.37;100.00;100112.03;5033982;28;20030;-85
2023/08/11 03:10:42;;;;;;;4.68;4.10;;;;;;;13.36;100.00;100110.38;5033866;28;20029;-85
2023/08/11 03:13:08;;;;;;;6.60;4.30;;;;;;;13.28;100.00;100102.06;5016291;28;20094;-85
2023/08/11 03:15:33;;;;;;;8.90;4.18;;;;;;;13.09;100.00;100082.00;5033864;28;20435;-85
2023/08/11 03:17:59;;;;;;;4.82;3.85;;;;;;;13.18;100.00;100110.31;5033671;28;20025;-85
2023/08/11 03:20:24;;;;;;;5.63;4.50;;;;;;;13.17;100.00;100105.16;5033714;28;20029;-85
2023/08/11 03:22:50;;;;;;;5.60;4.10;;;;;;;13.13;100.00;100106.22;5033423;28;20025;-85
2023/08/11 03:25:15;;;;;;;7.25;4.88;;;;;;;13.13;100.00;100099.22;5016021;28;20022;-84
2023/08/11 03:27:42;;;;;;;4.50;4.10;;;;;;;13.10;100.00;100102.00;5033536;28;20033;-85
2023/08/11 03:30:08;;;;;;;5.70;4.25;;;;;;;13.10;100.00;100103.75;5033721;28;20111;-85
2023/08/11 03:32:34;;;;;;;7.43;4.28;;;;;;;13.11;100.00;100110.72;5015795;28;20018;-85
2023/08/11 03:34:59;;;;;;;4.72;3.88;;;;;;;13.10;100.00;100098.53;5033318;28;20056;-85
2023/08/11 03:37:25;;;;;;;6.30;4.00;;;;;;;13.07;100.00;100101.31;5033346;28;20017;-85
2023/08/11 03:39:51;;;;;;;7.43;4.47;;;;;;;13.06;100.00;100110.06;5033408;28;20037;-85
2023/08/11 03:42:17;;;;;;;4.60;3.88;;;;;;;13.00;100.00;100103.38;5015776;28;20431;-85
2023/08/11 03:44:43;;;;;;;7.57;4.72;;;;;;;12.90;100.00;100100.38;5032569;28;20033;-84
2023/08/11 03:47:08;;;;;;;9.60;6.75;;;;;;;12.84;100.00;100079.75;5033349;28;20079;-84
2023/08/11 03:49:33;;;;;;;8.40;6.85;;;;;;;13.01;100.00;100107.69;5033159;28;20167;-85
2023/08/11 03:51:59;;;;;;;12.73;9.20;;;;;;;13.05;100.00;100113.63;5015179;28;20048;-85
2023/08/11 03:54:24;;;;;;;8.95;7.65;;;;;;;12.92;100.00;100095.06;5015517;28;20388;-85
2023/08/11 03:56:49;;;;;;;11.27;8.93;;;;;;;13.03;100.00;100111.09;5015242;28;20654;-85
2023/08/11 03:59:15;;;;;;;14.82;8.80;;;;;;;13.06;100.00;100115.28;5015331;28;20431;-85
2023/08/11 04:01:40;;;;;;;11.25;8.50;;;;;;;13.09;100.00;100112.53;5015199;28;20033;-85
2023/08/11 04:04:06;;;;;;;12.00;6.18;;;;;;;13.12;100.00;100112.41;5033082;28;20033;-84
2023/08/11 04:06:35;;;;;;;6.03;4.43;;;;;;;13.01;100.00;100085.94;5032856;28;20028;-84
2023/08/11 04:09:01;;;;;;;7.97;5.00;;;;;;;13.23;100.00;100102.25;5015013;28;20559;-84
2023/08/11 04:11:28;;;;;;;7.70;5.30;;;;;;;13.63;100.00;100127.25;5032969;28;20156;-85
2023/08/11 04:13:53;;;;;;;7.30;5.60;;;;;;;13.90;100.00;100122.34;5032481;28;20040;-85
2023/08/11 04:16:20;;;;;;;6.55;5.32;;;;;;;14.22;100.00;100093.59;5015028;28;20025;-85
2023/08/11 04:18:45;;;;;;;4.50;3.85;;;;;;;15.00;99.59;100111.97;5032633;28;20485;-85
2023/08/11 04:21:10;;;;;;;6.13;4.30;;;;;;;15.68;95.94;100122.88;5032487;28;20144;-85
2023/08/11 04:23:35;;;;;;;7.10;4.75;;;;;;;16.03;94.24;100122.50;5015011;28;20035;-85
2023/08/11 04:26:01;;;;;;;7.75;5.55;;;;;;;16.20;93.63;100132.81;5014629;28;20064;-85
2023/08/11 04:28:26;;;;;;;6.20;4.10;;;;;;;16.31;92.46;100113.75;5014885;28;20060;-85
2023/08/11 04:30:51;;;;;;;9.65;3.88;;;;;;;16.30;91.88;100098.91;5032190;28;20029;-85
2023/08/11 04:33:17;;;;;;;4.72;3.92;;;;;;;16.51;91.54;100120.38;5014720;28;20505;-85
2023/08/11 04:35:43;;;;;;;5.95;4.07;;;;;;;16.61;91.24;100130.22;5014352;28;20388;-85
2023/08/11 04:38:09;;;;;;;4.53;3.58;;;;;;;16.91;90.37;100131.84;5032300;28;20034;-85
2023/08/11 04:40:35;;;;;;;5.68;4.35;;;;;;;17.50;88.64;100131.44;5032402;28;20052;-85
2023/08/11 04:43:00;;;;;;;5.18;3.80;;;;;;;18.32;85.70;100106.41;5032178;28;20120;-85
2023/08/11 04:45:27;;;;;;;5.82;4.15;;;;;;;19.06;83.67;100134.44;5014612;28;20179;-85
2023/08/11 04:47:52;;;;;;;5.85;4.00;;;;;;;19.61;81.65;100134.75;5032020;28;20548;-85
2023/08/11 04:50:18;;;;;;;4.60;4.10;;;;;;;19.77;81.26;100126.50;5013976;28;20124;-85
2023/08/11 04:52:43;;;;;;;5.70;3.88;;;;;;;19.64;80.75;100127.44;5014523;28;20018;-85
2023/08/11 04:55:09;;;;;;;3.88;3.20;;;;;;;19.38;80.72;100120.63;5031442;28;20068;-85
2023/08/11 04:57:35;;;;;;;6.45;4.43;;;;;;;19.08;79.26;100134.31;5032084;28;20029;-85
2023/08/11 05:00:01;;;;;;;5.18;3.90;;;;;;;18.68;79.43;100137.22;5031827;28;20116;-85
2023/08/11 05:02:26;;;;;;;7.15;4.13;;;;;;;18.46;81.77;100143.22;5032013;28;20468;-85
2023/08/11 05:04:52;;;;;;;5.63;3.88;;;;;;;18.32;82.86;100153.88;5013945;28;20080;-85
2023/08/11 05:07:18;;;;;;;6.03;4.43;;;;;;;18.00;82.87;100135.91;5032152;28;20029;-85
2023/08/11 05:09:44;;;;;;;8.23;4.18;;;;;;;17.92;84.13;100151.41;5014455;28;20033;-85
2023/08/11 05:12:10;;;;;;;5.15;4.13;;;;;;;17.83;85.01;100149.41;5031888;28;20053;-85
2023/08/11 05:14:35;;;;;;;4.72;4.03;;;;;;;17.59;84.29;100131.66;5032078;28;20033;-85
2023/08/11 05:17:00;;;;;;;5.40;3.80;;;;;;;17.73;84.75;100157.06;5031640;28;20483;-85
2023/08/11 05:19:26;;;;;;;5.55;3.63;;;;;;;18.04;84.63;100157.63;5031916;28;20465;-85
2023/08/11 05:21:52;;;;;;;4.75;3.80;;;;;;;18.47;83.63;100154.59;5014261;28;20032;-85
2023/08/11 05:24:18;;;;;;;6.47;3.88;;;;;;;19.25;80.92;100154.19;5031990;28;20037;-85
2023/08/11 05:26:43;;;;;;;6.20;4.57;;;;;;;20.52;76.33;100155.84;5031859;28;20115;-85
2023/08/11 05:29:08;;;;;;;6.32;4.60;;;;;;;21.82;71.69;100155.66;5031580;28;20037;-85
2023/08/11 05:31:34;;;;;;;5.10;4.20;;;;;;;22.29;69.65;100152.56;5013961;28;20021;-85
2023/08/11 05:33:59;;;;;;;6.30;4.43;;;;;;;22.05;69.27;100158.19;5013648;28;20034;-85
2023/08/11 05:36:25;;;;;;;5.63;4.50;;;;;;;21.78;70.13;100153.41;5014155;28;20018;-85
2023/08/11 05:38:50;;;;;;;8.10;4.72;;;;;;;21.66;70.80;100155.31;5031554;28;20114;-85
2023/08/11 05:41:16;;;;;;;7.32;4.88;;;;;;;21.47;71.11;100131.34;5031475;28;20037;-85
2023/08/11 05:43:41;;;;;;;6.90;5.00;;;;;;;21.59;71.00;100128.47;5031714;28;20465;-85
2023/08/11 05:46:07;;;;;;;8.38;5.40;;;;;;;22.04;69.59;100141.44;5013684;28;20510;-85
2023/08/11 05:48:33;;;;;;;5.97;4.85;;;;;;;22.52;68.99;100151.38;5013415;28;20120;-85
2023/08/11 05:50:58;;;;;;;7.13;4.63;;;;;;;22.31;68.60;100108.16;5031541;28;20096;-85
2023/08/11 05:53:24;;;;;;;5.68;4.95;;;;;;;22.53;69.68;100141.59;5031693;28;20113;-85
2023/08/11 05:55:50;;;;;;;5.22;4.45;;;;;;;22.47;68.31;100135.03;5031405;28;20029;-85
2023/08/11 05:58:15;;;;;;;6.90;4.63;;;;;;;22.63;68.33;100148.63;5013814;28;20053;-85
2023/08/11 06:00:41;;;;;;;5.45;4.40;;;;;;;22.53;68.37;100146.91;5031352;28;20034;-85
2023/08/11 06:03:06;;;;;;;6.00;4.72;;;;;;;22.58;70.27;100155.31;5031028;28;20029;-85
2023/08/11 06:05:32;;;;;;;7.38;4.65;;;;;;;22.62;69.23;100135.47;5013945;28;20025;-85
2023/08/11 06:07:57;;;;;;;6.10;4.57;;;;;;;23.04;68.56;100151.22;5016180;28;20033;-85
2023/08/11 06:10:23;;;;;;;6.65;4.35;;;;;;;23.09;68.12;100154.28;5035213;28;20487;-85
2023/08/11 06:12:48;;;;;;;6.35;4.68;;;;;;;23.15;67.63;100143.94;5017317;28;20071;-85
2023/08/11 06:15:14;;;;;;;5.68;4.03;;;;;;;23.08;67.65;100129.53;5035046;28;20052;-85
2023/08/11 06:17:39;;;;;;;6.05;4.00;;;;;;;23.28;67.55;100145.47;5035166;28;20076;-85
2023/08/11 06:20:05;;;;;;;9.30;4.60;;;;;;;23.39;67.85;100150.66;5034797;28;20025;-85
2023/08/11 06:22:31;;;;;;;6.63;4.20;;;;;;;23.55;66.83;100158.03;5017234;28;20029;-85
2023/08/11 06:24:56;;;;;;;7.28;4.20;;;;;;;23.65;66.51;100156.25;5034973;28;20048;-85
2023/08/11 06:27:22;;;;;;;4.45;3.90;;;;;;;23.68;65.71;100157.75;5034877;28;20388;-85
2023/08/11 06:29:47;;;;;;;6.57;4.57;;;;;;;23.77;66.40;100146.28;5034327;28;20029;-85
2023/08/11 06:32:13;;;;;;;5.65;4.60;;;;;;;23.99;65.24;100163.72;5034500;28;20083;-85
2023/08/11 06:34:38;;;;;;;4.40;4.00;;;;;;;24.14;65.25;100164.91;5034696;28;20026;-85
2023/08/11 06:37:03;;;;;;;5.13;4.00;;;;;;;24.31;65.69;100165.94;5016753;28;20033;-85
2023/08/11 06:39:29;;;;;;;4.60;3.50;;;;;;;24.57;65.65;100166.16;5016838;28;20022;-84
2023/08/11 06:41:54;;;;;;;3.70;3.30;;;;;;;24.86;64.54;100158.81;5034340;28;20026;-85
2023/08/11 06:44:20;;;;;;;3.85;3.17;;;;;;;25.28;64.35;100157.38;5034467;28;20025;-85
2023/08/11 06:46:45;;;;;;;5.43;3.65;;;;;;;25.69;62.92;100163.03;5034687;28;20032;-85
2023/08/11 06:49:10;;;;;;;5.85;3.72;;;;;;;26.09;60.51;100152.63;5033885;28;20045;-85
2023/08/11 06:51:36;;;;;;;3.65;3.20;;;;;;;26.69;59.26;100170.41;5034522;28;20021;-85
2023/08/11 06:54:01;;;;;;;6.93;4.18;;;;;;;26.90;57.98;100156.59;5015802;28;20025;-85
2023/08/11 06:56:27;;;;;;;4.18;3.58;;;;;;;26.93;57.86;100166.97;5033925;28;20472;-85
2023/08/11 06:58:52;;;;;;;3.55;3.05;;;;;;;27.15;57.29;100173.53;5032866;28;20033;-85
2023/08/11 07:01:18;;;;;;;6.82;3.72;;;;;;;27.32;56.26;100174.38;5033368;28;20673;-85
2023/08/11 07:03:46;;;;;;;4.82;3.45;;;;;;;27.29;56.26;100162.16;5033158;28;20546;-85
2023/08/11 07:06:12;;;;;;;3.90;3.50;;;;;;;27.01;57.97;100163.44;5033957;28;20160;-84
2023/08/11 07:08:39;;;;;;;4.28;3.50;;;;;;;26.73;58.25;100169.09;5033709;28;20030;-84
2023/08/11 07:11:04;;;;;;;4.53;3.40;;;;;;;26.95;59.25;100166.78;5033792;28;20053;-84
2023/08/11 07:13:29;;;;;;;11.85;3.70;;;;;;;27.67;57.82;100170.50;5033946;28;20075;-83
2023/08/11 07:15:56;;;;;;;6.32;4.03;;;;;;;28.50;56.25;100167.47;5033682;28;20079;-84
2023/08/11 07:18:22;;;;;;;7.22;3.75;;;;;;;29.63;54.97;100179.50;5032832;28;20029;-83
2023/08/11 07:20:47;;;;;;;4.38;3.45;;;;;;;30.40;52.38;100165.75;5033863;28;20044;-85
2023/08/11 07:23:13;;;;;;;4.88;3.20;;;;;;;31.43;51.69;100167.25;5033906;28;20468;-84
2023/08/11 07:25:38;;;;;;;4.68;3.55;;;;;;;32.52;50.60;100189.97;5033699;28;20025;-84
2023/08/11 07:28:04;;;;;;;3.65;3.35;;;;;;;33.57;48.64;100170.69;5033538;28;20391;-85
2023/08/11 07:30:32;;;;;;;3.90;2.80;;;;;;;34.82;48.10;100177.63;5033606;28;20025;-84
2023/08/11 07:32:57;;;;;;;3.03;2.80;;;;;;;35.77;46.17;100168.59;5033280;28;20025;-85
2023/08/11 07:35:24;;;;;;;6.22;3.20;;;;;;;36.60;45.71;100173.53;5015161;28;20029;-84
2023/08/11 07:37:49;;;;;;;6.13;3.35;;;;;;;37.29;44.52;100185.69;5032099;28;20395;-85
2023/08/11 07:40:15;;;;;;;4.35;3.20;;;;;;;37.61;43.56;100178.06;5014427;28;20032;-85
2023/08/11 07:42:40;;;;;;;3.47;3.17;;;;;;;38.33;43.58;100191.41;5033400;28;20037;-85
2023/08/11 07:45:06;;;;;;;4.97;2.80;;;;;;;38.32;42.70;100188.94;5033165;28;20420;-85
2023/08/11 07:47:32;;;;;;;3.40;3.10;;;;;;;38.08;43.75;100185.41;5033596;28;20029;-85
2023/08/11 07:49:57;;;;;;;4.47;2.97;;;;;;;37.49;43.95;100187.28;5033136;28;20119;-85
2023/08/11 07:52:23;;;;;;;4.65;3.55;;;;;;;37.08;44.40;100184.34;5033233;28;20382;-85
2023/08/11 07:54:48;;;;;;;3.10;2.80;;;;;;;36.94;44.92;100191.88;5033277;28;20077;-85
2023/08/11 07:57:13;;;;;;;4.05;3.65;;;;;;;36.26;44.46;100196.69;5032708;28;20049;-85
2023/08/11 07:59:39;;;;;;;3.00;2.70;;;;;;;35.37;45.25;100201.44;5032930;28;20025;-85
2023/08/11 08:02:04;;;;;;;3.13;2.92;;;;;;;35.11;45.79;100202.47;5014941;28;20025;-85
2023/08/11 08:04:30;;;;;;;2.85;2.65;;;;;;;34.89;46.29;100200.09;5032961;28;20061;-85
2023/08/11 08:06:55;;;;;;;3.50;2.60;;;;;;;34.50;45.21;100187.56;5032816;28;20036;-85
2023/08/11 08:09:20;;;;;;;3.38;3.08;;;;;;;34.35;45.91;100189.69;5032863;28;20030;-85
2023/08/11 08:11:47;;;;;;;3.80;2.90;;;;;;;34.54;45.92;100185.28;5032899;28;20030;-85
2023/08/11 08:14:13;;;;;;;2.85;2.60;;;;;;;35.17;45.35;100188.88;5032515;28;20032;-85
2023/08/11 08:16:44;;;;;;;3.22;2.60;;;;;;;35.67;43.55;100194.34;5014875;28;20053;-85
2023/08/11 08:19:11;;;;;;;4.25;2.53;;;;;;;35.75;43.67;100195.94;5032594;28;20152;-84
2023/08/11 08:21:37;;;;;;;3.17;2.78;;;;;;;35.26;43.57;100189.44;5015050;28;20025;-84
2023/08/11 08:24:04;;;;;;;3.83;3.10;;;;;;;34.64;43.73;100174.81;5032770;28;20426;-85
2023/08/11 08:26:30;;;;;;;2.80;2.50;;;;;;;33.95;45.40;100187.06;5032664;28;20033;-84
2023/08/11 08:28:55;;;;;;;3.78;2.38;;;;;;;33.14;45.93;100188.09;5032483;28;20423;-84
2023/08/11 08:31:20;;;;;;;4.35;2.83;;;;;;;32.32;46.47;100188.19;5014245;28;20025;-84
2023/08/11 08:33:45;;;;;;;3.85;2.75;;;;;;;31.55;48.21;100179.16;5032623;28;20030;-84
2023/08/11 08:36:11;;;;;;;3.03;2.65;;;;;;;30.98;48.76;100185.47;5014362;28;20033;-84
2023/08/11 08:38:36;;;;;;;2.47;2.28;;;;;;;30.41;49.91;100189.72;5032430;28;20060;-84
2023/08/11 08:41:06;;;;;;;3.10;2.40;;;;;;;29.93;50.45;100180.38;5014361;28;20095;-84
2023/08/11 08:43:32;;;;;;;3.90;2.70;;;;;;;29.52;50.78;100191.44;5013780;28;20025;-84
2023/08/11 08:46:01;;;;;;;2.88;2.35;;;;;;;29.01;51.70;100165.19;5032083;28;20041;-84
2023/08/11 08:48:38;;;;;;;3.25;2.95;;;;;;;28.78;52.49;100189.28;5030800;28;20075;-84
2023/08/11 08:51:05;;;;;;;2.92;2.60;;;;;;;28.49;52.80;100202.50;5030841;28;20021;-84
2023/08/11 08:53:31;;;;;;;4.75;2.95;;;;;;;28.24;52.97;100196.38;4997035;28;20046;-84
2023/08/11 08:55:57;;;;;;;3.15;2.80;;;;;;;27.96;52.11;100187.91;4990304;28;20034;-84
2023/08/11 08:58:22;;;;;;;4.00;2.75;;;;;;;27.69;53.12;100176.53;4990113;28;20042;-84
2023/08/11 09:00:50;;;;;;;5.72;3.67;;;;;;;27.55;53.43;100188.75;4990294;28;20026;-84
2023/08/11 09:03:16;;;;;;;2.70;2.50;;;;;;;27.41;54.22;100191.28;4990227;28;20034;-84
2023/08/11 09:05:42;;;;;;;2.85;2.65;;;;;;;27.31;54.23;100194.13;4990261;28;20143;-84
2023/08/11 09:08:08;;;;;;;3.25;2.80;;;;;;;27.19;53.16;100192.78;4990056;28;20518;-84
2023/08/11 09:10:36;;;;;;;3.67;2.80;;;;;;;26.81;53.11;100178.97;4990185;28;20026;-84
2023/08/11 09:13:02;;;;;;;5.82;2.83;;;;;;;26.73;54.52;100185.13;4989943;28;20046;-84
2023/08/11 09:15:28;;;;;;;3.15;2.65;;;;;;;26.66;55.85;100175.25;4990263;28;20030;-84
2023/08/11 09:17:54;;;;;;;3.33;2.80;;;;;;;26.68;55.61;100182.09;4990207;28;20089;-84
2023/08/11 09:20:20;;;;;;;4.80;3.20;;;;;;;26.52;54.95;100188.22;4989848;28;20034;-84
2023/08/11 09:22:45;;;;;;;4.38;3.03;;;;;;;26.44;55.38;100188.19;4990013;28;20049;-84
2023/08/11 09:25:12;;;;;;;4.57;3.75;;;;;;;26.32;55.84;100186.78;5021860;28;20033;-83
2023/08/11 09:27:37;;;;;;;3.05;2.65;;;;;;;26.25;55.56;100178.59;5031069;28;20121;-83
2023/08/11 09:30:03;;;;;;;3.35;2.80;;;;;;;26.32;56.67;100192.09;5031613;28;20464;-84
2023/08/11 09:32:35;;;;;;;3.88;2.70;;;;;;;26.25;58.02;100178.59;5031908;28;20034;-84
2023/08/11 09:35:07;;;;;;;3.03;2.70;;;;;;;26.38;57.62;100196.84;5031553;28;20029;-83
2023/08/11 09:37:32;;;;;;;3.78;2.70;;;;;;;26.15;54.65;100199.19;5031716;28;20033;-83
2023/08/11 09:40:01;;;;;;;3.40;3.08;;;;;;;25.94;54.83;100193.41;5046867;28;20103;-83
2023/08/11 09:42:27;;;;;;;2.78;2.42;;;;;;;25.66;55.61;100182.84;5033747;28;20025;-83
2023/08/11 09:44:53;;;;;;;3.92;2.80;;;;;;;25.46;55.74;100170.72;5035776;28;20029;-83
2023/08/11 09:47:19;;;;;;;3.38;3.08;;;;;;;25.48;55.78;100200.72;5035384;28;20042;-83
2023/08/11 09:49:44;;;;;;;2.63;2.42;;;;;;;25.37;55.26;100194.63;5035289;28;20053;-84
2023/08/11 09:52:11;;;;;;;6.47;3.45;;;;;;;25.28;56.41;100195.56;5035275;28;20025;-83
2023/08/11 09:54:37;;;;;;;3.10;2.80;;;;;;;25.30;57.03;100206.06;5035359;28;20369;-84
2023/08/11 09:57:05;;;;;;;3.72;3.15;;;;;;;25.11;55.56;100191.03;5035587;28;20468;-83
2023/08/11 09:59:31;;;;;;;4.03;2.78;;;;;;;25.24;56.66;100202.19;5035403;28;20029;-83
2023/08/11 10:02:01;;;;;;;2.92;2.65;;;;;;;25.28;56.16;100198.22;5017674;28;20029;-83
2023/08/11 10:04:37;;;;;;;3.25;2.95;;;;;;;25.19;56.35;100203.63;5017307;28;20025;-83
2023/08/11 10:07:09;;;;;;;3.17;2.88;;;;;;;25.02;57.13;100184.75;5035181;28;20021;-83
2023/08/11 10:09:36;;;;;;;3.10;2.80;;;;;;;25.00;57.98;100186.75;5035612;28;20043;-83
2023/08/11 10:12:04;;;;;;;3.30;3.00;;;;;;;25.04;57.69;100190.78;5017535;28;20056;-83
2023/08/11 10:14:32;;;;;;;3.00;2.70;;;;;;;25.03;57.29;100180.25;5035083;28;20057;-83
2023/08/11 10:16:59;;;;;;;3.33;3.03;;;;;;;25.14;59.06;100188.91;5035253;28;20036;-83
2023/08/11 10:19:24;;;;;;;3.63;3.10;;;;;;;25.08;57.63;100186.88;5016980;28;20033;-84
2023/08/11 10:21:50;;;;;;;3.13;2.83;;;;;;;25.16;58.93;100190.59;5035037;28;20103;-83
2023/08/11 10:24:16;;;;;;;3.45;3.15;;;;;;;25.26;59.51;100186.03;5034866;28;20468;-85
2023/08/11 10:26:41;;;;;;;2.95;2.58;;;;;;;25.32;59.87;100183.56;5035244;28;20109;-84
2023/08/11 10:29:08;;;;;;;2.97;2.78;;;;;;;25.41;59.21;100175.63;5034669;28;20334;-84
2023/08/11 10:31:34;;;;;;;2.95;2.75;;;;;;;25.57;59.18;100189.94;5034813;28;20057;-84
2023/08/11 10:34:06;;;;;;;4.63;2.97;;;;;;;25.59;58.72;100176.47;5016853;28;20072;-83
2023/08/11 10:36:32;;;;;;;5.47;3.38;;;;;;;25.72;57.80;100189.41;5016997;28;20025;-84
2023/08/11 10:39:05;;;;;;;3.97;3.17;;;;;;;25.76;57.28;100172.09;5034757;28;20037;-83
2023/08/11 10:41:31;;;;;;;3.33;3.03;;;;;;;25.80;56.15;100184.16;5034674;28;20025;-84
2023/08/11 10:43:57;;;;;;;3.30;3.00;;;;;;;25.86;56.01;100188.84;5016844;28;20022;-84
2023/08/11 10:46:28;;;;;;;3.70;3.20;;;;;;;25.81;56.09;100172.47;5049487;28;20387;-83
2023/08/11 10:48:58;;;;;;;3.75;2.92;;;;;;;26.05;56.76;100193.16;5034382;28;20055;-84
2023/08/11 10:51:33;;;;;;;3.08;2.78;;;;;;;26.18;57.70;100184.72;5016624;28;20053;-83
2023/08/11 10:54:10;;;;;;;2.78;2.58;;;;;;;26.25;57.75;100172.38;5048421;28;20021;-83
2023/08/11 10:56:41;;;;;;;2.85;2.65;;;;;;;26.24;57.64;100162.69;5034380;28;20376;-84
2023/08/11 10:59:17;;;;;;;3.00;2.80;;;;;;;26.30;58.29;100167.41;5016163;28;20128;-84
2023/08/11 11:01:45;;;;;;;2.90;2.70;;;;;;;26.34;58.46;100177.63;5034412;28;20047;-83
2023/08/11 11:04:11;;;;;;;3.22;2.85;;;;;;;26.32;58.14;100178.75;5016231;28;20368;-83
2023/08/11 11:06:37;;;;;;;4.25;2.97;;;;;;;26.29;56.70;100171.91;5034151;28;20487;-84
2023/08/11 11:09:03;;;;;;;4.32;2.88;;;;;;;26.11;56.36;100160.47;5033970;28;20503;-83
2023/08/11 11:11:30;;;;;;;5.82;3.60;;;;;;;26.05;56.89;100161.94;5033731;28;20025;-84
2023/08/11 11:13:56;;;;;;;4.90;3.53;;;;;;;26.09;57.67;100182.00;5034186;28;20028;-84
2023/08/11 11:16:21;;;;;;;3.85;2.88;;;;;;;25.95;55.74;100158.53;5033812;28;20025;-83
2023/08/11 11:18:47;;;;;;;2.92;2.58;;;;;;;25.81;55.53;100162.63;5033935;28;20078;-84